Alturas, CA

1:12 PM PST on February 27, 2015 (GMT -0800)
Alturas Municipal | Change Station
CLOSE
Current Station
Airport
Location: Alturas,
Elevation: 4373 ft
Nearby Weather Stations

Elev 4373 ft 41.49 °N, 120.56 °W | Updated 17 minutes ago

Overcast
Overcast
37 °F
Feels Like 34 °F
N
4
Wind Variable Wind from North

Today
High -- | Low -- °F
--% Chance of Precip.
Yesterday
High -- | Low -- °F
Precip. -- in
6:40 AM 5:50 PM
Waxing Gibbous, 71% visible
Pressure 29.70 in
Visibility 10.0 miles
Clouds Mostly Cloudy 3000 ft
Overcast 3700 ft
Windchill 34 °F
Dew Point 33 °F
Humidity 86%
Rainfall 0.09 in
Snow Depth Not available.
UV 2 out of 12
Pollen 5.30 out of 12
Air Quality Not available.
Flu Activity Not available.
METAR KAAT 272055Z AUTO 36003KT 10SM BKN030 OVC037 03/01 A2969 RMK AO2 RAB19E50UPB50E52 SLP056 P0007 60007 T00280006 56009

More Conditions Fewer Conditions

Pressure 29.70 in
Visibility 10.0 miles
Clouds Mostly Cloudy 3000 ft
Overcast 3700 ft
Windchill 34 °F
Dew Point 33 °F
Humidity 86%
Rainfall 0.09 in
Snow Depth Not available.
UV 2 out of 12
Pollen 5.30 out of 12
Air Quality Not available.
Flu Activity Not available.
METAR KAAT 272055Z AUTO 36003KT 10SM BKN030 OVC037 03/01 A2969 RMK AO2 RAB19E50UPB50E52 SLP056 P0007 60007 T00280006 56009

More Conditions Fewer Conditions

10-Day Weather Forecast

Almanac

Astronomy

Feb. 27, 2015 Rise Set
Actual Time
Civil Twilight
Nautical Twilight
Astronomical Twilight
Moon
Length of Visible Light
Length of Day
Tomorrow will be .
, % of the Moon is Illuminated

Today's Extremes

State Highs State Lows

Community

WunderPhotos

Upload Photos

1,800,828 photos uploaded!

WunderBlogs® & News

Nearby

Air Quality

  Air Quality AQ Index Pollutant
Not available.

Snow Depth

Station Depth Elevation

Earthquake Activity

City Distance Mag. Time & Date
Minimum magnitude displayed is 2.5.

Coastal Water Temperatures

Place Temperature

Nearby Weather Stations